Flight Track Log - Related Links

Times and Time Zones

All times are in EST time to prevent confusion due to time zone crossing. See the EJA831 flight status page for this flight to view local times or setup timezone preferences in your user account.

Time Position Orientation Groundspeed Altitude Reporting Facility
EST Latitude Longitude Course Direction KTS MPH feet Rate Location/Type
Tue 01:16:59 PM 32.9667 -96.8333 107° East 155 178 1,100  Level Dallas / Fort Worth TRACON
Tue 01:18:06 PM 32.9500 -96.7667 107° East 227 261 3,400 2,139 Climbing Dallas / Fort Worth TRACON
Tue 01:20:21 PM 32.9117 -96.5844 104° East 295 339 8,300 2,102 Climbing Fort Worth Center
Tue 01:21:23 PM 32.8881 -96.4578 102° East 322 371 10,300 2,081 Climbing Fort Worth Center
Tue 01:22:25 PM 32.8678 -96.3414 102° East 347 399 12,600 2,304 Climbing Fort Worth Center
Tue 01:23:28 PM 32.8681 -96.2189 90° East 367 422 15,100 2,400 Climbing Fort Worth Center
Tue 01:24:30 PM 32.8708 -96.0950 88° East 373 429 17,600 2,565 Climbing Fort Worth Center
Tue 01:25:32 PM 32.8814 -95.9744 84° East 370 426 20,400 2,323 Climbing Fort Worth Center
Tue 01:26:34 PM 32.8983 -95.8508 81° East 375 432 22,400 1,984 Climbing Fort Worth Center
Tue 01:27:36 PM 32.9183 -95.6917 81° East 401 461 24,500 1,742 Climbing Fort Worth Center
Tue 01:28:38 PM 32.9364 -95.5547 81° East 417 480 26,000 1,403 Climbing Fort Worth Center
Tue 01:29:40 PM 32.9547 -95.4122 81° East 433 498 27,400 1,403 Climbing Fort Worth Center
Tue 01:30:42 PM 32.9722 -95.2658 82° East 444 511 28,900 1,597 Climbing Fort Worth Center
Tue 01:31:44 PM 32.9900 -95.1172 82° East 452 520 30,700 1,776 Climbing Fort Worth Center
Tue 01:32:47 PM 33.0117 -94.9383 82° East 454 522 32,600 1,872 Climbing Fort Worth Center
Tue 01:33:49 PM 33.0283 -94.7892 82° East 456 525 34,600 1,161 Climbing Fort Worth Center
Tue 01:34:51 PM 33.0489 -94.6369 81° East 462 532 35,000 194 Climbing Fort Worth Center
Tue 01:35:53 PM 33.0683 -94.4708 82° East 505 581 35,000  Level Fort Worth Center
Tue 01:36:55 PM 33.0897 -94.2756 82° East 523 602 35,000  Level Fort Worth Center
Tue 01:37:57 PM 33.1100 -94.1031 82° East 526 605 35,000  Level Fort Worth Center
Tue 01:38:59 PM 33.1292 -93.9231 83° East 512 589 35,000  Level Fort Worth Center
Tue 01:40:01 PM 33.1478 -93.7569 82° East 508 585 35,000  Level Fort Worth Center
Tue 01:41:03 PM 33.1656 -93.5894 83° East 510 587 35,000  Level Fort Worth Center
Tue 01:42:06 PM 33.1861 -93.4081 82° East 512 589 35,000  Level Fort Worth Center
Tue 01:43:08 PM 33.2036 -93.2406 83° East 510 587 35,000  Level Fort Worth Center
Tue 01:44:10 PM 33.2228 -93.0600 83° East 511 588 35,000  Level Fort Worth Center
Tue 01:45:12 PM 33.2408 -92.9058 82° East 508 585 35,000  Level Fort Worth Center
Tue 01:46:14 PM 33.2689 -92.7411 78° East 507 583 35,000  Level Fort Worth Center
Tue 01:47:16 PM 33.3383 -92.6044 59° Northeast 492 566 35,000  Level Fort Worth Center
Tue 01:48:18 PM 33.4281 -92.4511 55° Northeast 475 547 35,000  Level Fort Worth Center
Tue 01:49:20 PM 33.4936 -92.3372 55° Northeast 473 544 35,000  Level Fort Worth Center
Tue 01:50:22 PM 33.5675 -92.2072 56° Northeast 475 547 35,000  Level Fort Worth Center
Tue 01:51:22 PM 33.6422 -92.0772 55° Northeast 471 542 35,000  Level Memphis Center
Tue 01:52:24 PM 33.7214 -91.9386 55° Northeast 474 545 35,000  Level Memphis Center
Tue 01:53:25 PM 33.7953 -91.8097 55° Northeast 472 543 35,000 -390 Level Memphis Center
Tue 01:54:27 PM 33.8739 -91.6700 56° Northeast 473 544 34,200 -1,258 Descending Memphis Center
Tue 01:55:29 PM 33.9658 -91.5206 53° Northeast 472 543 32,400 -1,597 Descending Memphis Center
Tue 01:56:31 PM 34.0511 -91.4042 48° Northeast 463 533 30,900 -1,500 Descending Memphis Center
Tue 01:57:33 PM 34.1328 -91.2914 49° Northeast 450 518 29,300 -1,645 Descending Memphis Center
Tue 01:58:35 PM 34.2161 -91.1756 49° Northeast 450 518 27,500 -2,371 Descending Memphis Center
Tue 01:59:37 PM 34.3011 -91.0581 49° Northeast 458 527 24,400 -3,194 Descending Memphis Center
Tue 02:00:39 PM 34.3800 -90.9492 49° Northeast 436 502 20,900 -3,561 Descending Memphis Center
Tue 02:01:40 PM 34.4542 -90.8433 50° Northeast 415 478 17,100 -3,463 Descending Memphis Center
Tue 02:02:42 PM 34.5281 -90.7414 49° Northeast 404 465 13,800 -2,758 Descending Memphis Center
Tue 02:03:44 PM 34.5919 -90.6500 50° Northeast 366 421 11,400 -1,839 Descending Memphis Center
Tue 02:04:46 PM 34.6594 -90.5433 52° Northeast 342 394 10,000 -677 Descending Memphis Center
Tue 02:05:48 PM 34.7192 -90.4500 52° Northeast 342 394 10,000  Level Memphis Center
Tue 02:06:50 PM 34.7822 -90.3531 52° Northeast 356 410 10,000  Level Memphis Center
Tue 02:07:52 PM 34.8436 -90.2550 53° Northeast 359 413 10,000  Level Memphis Center
Tue 02:08:54 PM 34.9053 -90.1586 52° Northeast 357 411 10,000 -61 Level Memphis Center
Tue 02:09:30 PM 34.9500 -90.1167 38° Northeast 314 361 9,900 -1,167 Descending KMEM
Tue 02:10:42 PM 35.0500 -90.1000 North 281 323 7,900 -2,000 Descending KMEM
Tue 02:11:30 PM 35.1167 -90.1000 360° North 281 323 5,900 -2,778 Descending KMEM
Tue 02:12:30 PM 35.1833 -90.1167 348° North 280 322 2,900 -1,950 Descending KMEM
Tue 02:13:30 PM 35.2333 -90.0667 39° Northeast 219 252 2,000 -450 Descending KMEM
Tue 02:14:30 PM 35.2333 -90.0000 90° East 217 250 2,000  Level KMEM
Tue 02:15:36 PM 35.1667 -89.9833 168° South 205 236 2,000 -143 Level KMEM
Tue 02:16:36 PM 35.1167 -89.9833 180° South 175 201 1,700 -476 Descending KMEM
Tue 02:17:42 PM 35.0833 -89.9833 180° South 101 116 1,000 -636 Descending KMEM

Login

Don't have an account? Register now (free) for customized features, flight alerts, and more!